Latest Weather Observations for Armidale Airport

IDN60801

Issued at 1:05 pm EST Thursday 18 September 2014 (issued every 30 minutes, with the page automatically refreshed every 10 minutes)

About weather observations | Map of weather stations | Latest weather observations for NSW | Other Formats
Station Details ID: 056238 Name: ARMIDALE AIRPORT AWS Lat: -30.53 Lon: 151.62 Height: 1079.0 m
Data from the previous 72 hours. | See also: Recent months for locations in New South Wales
Date/Time
EST
Temp
°C
App
Temp
°C
Dew
Point
Rel
Hum
%
Delta-T
°C
Wind Press
QNH
hPa
Press
MSL
hPa
Rain
since 9 am
mm
Dir
 
Spd
km/h
Gust
km/h
Spd
kts
Gust
kts
18/01:00pm 13.3 5.9 -3.9 30 7.0 W 26 43 14 23 1019.1 1017.1 0.0
18/12:30pm 13.2 6.4 -1.9 35 6.4 W 24 35 13 19 1019.4 1017.4 0.0
18/12:00pm 12.7 4.6 -3.1 33 6.5 W 30 37 16 20 1019.6 1017.6 0.0
18/11:30am 12.1 5.3 -2.1 37 5.9 W 24 33 13 18 1019.9 1017.9 0.0
18/11:00am 11.6 5.6 -1.5 40 5.5 W 20 32 11 17 1020.1 1018.2 0.0
18/10:30am 11.0 5.8 -0.2 46 4.8 W 17 28 9 15 1020.5 1018.5 0.0
18/10:00am 10.6 4.0 -0.2 47 4.6 W 24 33 13 18 1020.6 1018.6 0.0
18/09:30am 9.9 3.8 0.5 52 4.1 W 22 30 12 16 1020.6 1018.6 0.0
18/09:00am 9.0 2.4 -0.1 53 3.9 WSW 24 32 13 17 1020.8 1018.9 0.0
18/08:30am 8.2 1.7 0.2 57 3.4 WSW 24 32 13 17 1020.7 1018.7 0.0
18/08:00am 7.6 1.5 0.1 59 3.2 W 22 28 12 15 1020.3 1018.3 0.0
18/07:30am 6.8 1.1 0.5 64 2.7 W 20 26 11 14 1020.1 1018.2 0.0
18/07:00am 5.6 0.6 1.2 73 1.9 W 17 20 9 11 1019.8 1017.8 0.0
18/06:30am 3.6 -2.2 0.0 77 1.5 W 20 24 11 13 1019.5 1017.5 0.0
18/06:00am 2.1 -3.8 -1.0 80 1.2 W 20 22 11 12 1019.0 1017.0 0.0
18/05:30am 2.1 -3.6 -1.0 80 1.2 W 19 20 10 11 1018.8 1016.8 0.0
18/05:00am 2.1 -2.9 -1.2 79 1.3 W 15 17 8 9 1018.6 1016.6 0.0
18/04:30am 2.4 -2.2 -1.0 78 1.3 W 13 15 7 8 1018.4 1016.4 0.0
18/04:00am 2.4 -2.6 -1.2 77 1.4 W 15 17 8 9 1018.1 1016.1 0.0
18/03:30am 2.9 -1.7 -0.9 76 1.5 W 13 17 7 9 1017.8 1015.8 0.0
18/03:00am 3.5 -1.5 -0.9 73 1.7 W 15 17 8 9 1017.7 1015.7 0.0
18/02:30am 3.9 -1.0 -0.5 73 1.8 W 15 17 8 9 1017.8 1015.8 0.0
18/02:00am 3.6 -1.0 -1.0 72 1.8 W 13 15 7 8 1017.8 1015.8 0.0
18/01:30am 4.1 -0.1 -0.9 70 2.0 W 11 11 6 6 1017.8 1015.8 0.0
18/01:00am 4.1 -0.5 -0.7 71 1.9 W 13 15 7 8 1017.9 1015.9 0.0
18/12:30am 4.3 -0.3 -0.7 70 2.0 WNW 13 15 7 8 1018.0 1016.0 0.0
18/12:00am 4.2 -0.4 -0.8 70 2.0 WNW 13 15 7 8 1018.0 1016.0 0.0
 
Date/Time
EST
Temp
°C
App
Temp
°C
Dew
Point
Rel
Hum
%
Delta-T
°C
Wind Press
QNH
hPa
Press
MSL
hPa
Rain
since 9 am
mm
Dir
 
Spd
km/h
Gust
km/h
Spd
kts
Gust
kts
17/11:30pm 4.7 0.2 -0.3 70 2.0 W 13 15 7 8 1017.9 1015.9 0.0
17/11:00pm 5.3 0.8 -0.5 66 2.3 W 13 15 7 8 1017.8 1015.8 0.0
17/10:30pm 6.7 2.3 0.2 63 2.7 W 13 17 7 9 1018.0 1016.0 0.0
17/10:00pm 5.6 1.2 0.4 69 2.2 W 13 15 7 8 1018.0 1016.0 0.0
17/09:30pm 6.6 2.2 0.5 65 2.6 W 13 17 7 9 1017.7 1015.7 0.0
17/09:00pm 7.2 3.2 0.4 62 2.9 W 11 15 6 8 1017.7 1015.7 0.0
17/08:30pm 7.6 3.3 0.8 62 2.9 W 13 17 7 9 1017.5 1015.4 0.0
17/08:00pm 9.0 3.9 1.0 57 3.5 WSW 17 22 9 12 1017.5 1015.4 0.0
17/07:30pm 9.4 5.1 1.1 56 3.6 W 13 17 7 9 1017.0 1015.0 0.0
17/07:00pm 7.9 3.6 0.9 61 3.0 WSW 13 15 7 8 1016.6 1014.5 0.0
17/06:30pm 8.9 4.6 0.9 57 3.5 WSW 13 17 7 9 1016.1 1014.1 0.0
17/06:00pm 10.5 5.7 0.5 50 4.4 WSW 15 20 8 11 1015.7 1013.6 0.0
17/05:30pm 11.9 6.8 0.7 46 5.0 WSW 17 22 9 12 1015.5 1013.4 0.0
17/05:00pm 12.0 5.9 0.1 44 5.2 WSW 22 32 12 17 1015.3 1013.2 0.0
17/04:30pm 13.1 6.1 -0.5 39 6.0 WSW 26 37 14 20 1015.0 1012.9 0.0
17/04:00pm 14.0 5.8 0.3 39 6.2 W 33 44 18 24 1014.8 1012.7 0.0
17/03:30pm 14.4 6.8 0.6 39 6.3 W 30 43 16 23 1014.4 1012.3 0.0
17/03:00pm 14.5 6.9 0.7 39 6.3 W 30 39 16 21 1014.3 1012.2 0.0
17/02:50pm 14.6 7.0 0.8 39 6.3 WSW 30 57 16 31 1014.0 1011.9 0.0
17/02:30pm 14.3 6.4 0.9 40 6.1 W 32 44 17 24 1014.1 1012.0 0.0
17/02:00pm 14.9 7.5 1.8 41 6.1 W 30 41 16 22 1014.1 1012.0 0.0
17/01:48pm 15.0 7.9 1.2 39 6.4 W 28 50 15 27 1014.1 1012.0 0.0
17/01:30pm 14.7 8.0 1.3 40 6.2 W 26 37 14 20 1014.3 1012.2 0.0
17/01:00pm 14.1 7.8 1.4 42 5.8 WNW 24 35 13 19 1014.7 1012.6 0.0
17/12:30pm 13.8 7.0 1.1 42 5.8 NW 26 32 14 17 1014.9 1012.8 0.0
17/12:00pm 13.4 6.7 1.4 44 5.5 W 26 33 14 18 1015.3 1013.2 0.0
17/11:30am 13.8 7.6 2.4 46 5.3 W 24 33 13 18 1015.5 1013.4 0.0
17/11:00am 12.7 6.6 2.6 50 4.7 W 24 35 13 19 1015.7 1013.6 0.0
17/10:30am 12.5 7.5 3.7 55 4.2 W 19 30 10 16 1016.3 1014.2 0.0
17/10:00am 11.7 6.3 2.7 54 4.2 W 20 28 11 15 1016.6 1014.5 0.0
17/09:30am 10.9 4.8 2.5 56 3.9 W 24 32 13 17 1016.8 1014.8 0.0
17/09:00am 10.1 4.5 3.2 62 3.2 W 22 32 12 17 1016.9 1014.9 0.0
17/08:30am 9.4 4.3 4.2 70 2.4 W 20 26 11 14 1016.8 1014.8 0.0
17/08:00am 8.7 3.9 4.7 76 1.9 WSW 19 24 10 13 1016.4 1014.3 0.0
17/07:30am 7.7 2.9 4.8 82 1.4 W 19 22 10 12 1016.0 1014.0 0.0
17/07:00am 6.6 2.2 4.8 88 0.8 W 17 19 9 10 1015.6 1013.5 0.0
17/06:30am 5.2 1.1 4.3 94 0.4 W 15 17 8 9 1015.1 1013.1 0.0
17/06:00am 4.0 0.1 3.3 95 0.3 W 13 15 7 8 1014.9 1012.8 0.0
17/05:30am 4.3 1.1 3.3 93 0.4 W 9 13 5 7 1014.8 1012.7 0.0
17/05:00am 4.7 1.5 3.2 90 0.7 W 9 13 5 7 1014.6 1012.5 0.0
17/04:30am 5.3 1.4 3.5 88 0.8 WSW 13 17 7 9 1014.3 1012.2 0.0
17/04:00am 5.0 2.2 2.9 86 0.9 W 7 13 4 7 1014.1 1012.0 0.0
17/03:30am 5.3 2.1 3.2 86 0.9 W 9 11 5 6 1014.1 1012.0 0.0
17/03:00am 5.6 2.4 3.1 84 1.1 W 9 11 5 6 1014.1 1012.0 0.0
17/02:30am 5.9 3.1 3.1 82 1.2 WSW 7 13 4 7 1014.4 1012.3 0.0
17/02:00am 6.4 3.6 3.2 80 1.4 WSW 7 13 4 7 1014.7 1012.6 0.0
17/01:30am 6.6 3.8 3.2 79 1.5 W 7 13 4 7 1015.0 1012.9 0.0
17/01:00am 7.4 3.8 3.1 74 1.9 W 11 19 6 10 1015.0 1012.9 0.0
17/12:30am 8.1 3.0 3.2 71 2.2 W 19 24 10 13 1015.0 1012.9 0.0
17/12:00am 8.4 2.4 3.3 70 2.3 W 24 32 13 17 1014.9 1012.8 0.0
 
Date/Time
EST
Temp
°C
App
Temp
°C
Dew
Point
Rel
Hum
%
Delta-T
°C
Wind Press
QNH
hPa
Press
MSL
hPa
Rain
since 9 am
mm
Dir
 
Spd
km/h
Gust
km/h
Spd
kts
Gust
kts
16/11:30pm 9.1 2.4 3.5 68 2.6 W 28 37 15 20 1014.8 1012.7 0.0
16/11:00pm 9.1 2.7 3.1 66 2.7 W 26 33 14 18 1014.4 1012.3 0.0
16/10:30pm 9.5 3.3 2.4 61 3.2 W 24 33 13 18 1014.6 1012.5 0.0
16/10:00pm 10.0 3.4 1.9 57 3.6 W 26 35 14 19 1014.5 1012.4 0.0
16/09:30pm 10.6 2.8 1.4 53 4.1 W 32 39 17 21 1014.1 1012.0 0.0
16/09:00pm 10.3 3.5 0.9 52 4.1 W 26 33 14 18 1014.3 1012.2 0.0
16/08:30pm 11.2 4.4 0.6 48 4.7 W 26 33 14 18 1014.3 1012.2 0.0
16/08:00pm 11.6 5.1 0.4 46 4.9 W 24 39 13 21 1014.3 1012.2 0.0
16/07:30pm 11.9 5.7 -0.3 43 5.3 W 22 32 12 17 1014.0 1011.9 0.0
16/07:00pm 13.3 5.8 -1.1 37 6.2 W 28 39 15 21 1013.7 1011.6 0.0
16/06:30pm 13.5 5.9 -2.0 34 6.6 W 28 41 15 22 1013.4 1011.2 0.0
16/06:00pm 14.1 6.1 -2.3 32 7.0 WNW 30 48 16 26 1012.9 1010.8 0.0
16/05:30pm 15.5 6.7 -1.5 31 7.4 WNW 35 54 19 29 1012.4 1010.2 0.0
16/05:02pm 16.3 7.3 0.0 33 7.4 WNW 37 56 20 30 1011.9 1009.8 0.0
16/05:00pm 16.4 7.1 0.5 34 7.3 NW 39 56 21 30 1012.0 1009.9 0.0
16/04:34pm 17.1 6.7 -0.1 31 7.9 NW 44 65 24 35 1011.7 1009.5 0.0
16/04:30pm 17.1 6.7 -0.1 31 7.9 NW 44 59 24 32 1011.5 1009.3 0.0
16/04:00pm 17.4 7.4 1.0 33 7.7 WNW 43 63 23 34 1011.6 1009.4 0.0
16/03:33pm 18.5 7.1 0.6 30 8.4 WNW 50 69 27 37 1011.6 1009.4 0.0
16/03:30pm 18.4 6.5 -0.4 28 8.6 WNW 52 69 28 37 1011.5 1009.3 0.0
16/03:00pm 19.4 9.0 2.3 32 8.4 WNW 46 65 25 35 1011.5 1009.3 0.0
16/02:32pm 20.0 10.8 3.3 33 8.3 WNW 41 59 22 32 1011.6 1009.4 0.0
16/02:30pm 19.8 10.2 3.5 34 8.2 NW 43 59 23 32 1011.6 1009.4 0.0
16/02:00pm 19.8 9.1 2.6 32 8.5 NW 48 67 26 36 1011.7 1009.5 0.0
16/01:46pm 19.8 9.7 3.5 34 8.2 NW 46 65 25 35 1011.9 1009.8 0.0
16/01:30pm 19.9 9.2 2.7 32 8.5 NW 48 63 26 34 1011.9 1009.8 0.0
16/01:00pm 18.9 8.3 3.1 35 7.8 WNW 48 70 26 38 1012.5 1010.3 0.0
16/12:57pm 19.2 8.9 2.6 33 8.1 WNW 46 70 25 38 1012.3 1010.1 0.0
16/12:30pm 20.5 11.0 4.9 36 8.1 NW 44 56 24 30 1012.8 1010.7 0.0
16/12:10pm 19.8 10.4 4.3 36 7.9 NW 43 65 23 35 1013.0 1010.9 0.0
16/12:00pm 20.4 10.1 4.8 36 8.0 NW 48 63 26 34 1013.3 1011.1 0.0
16/11:51am 20.0 10.9 4.1 35 8.1 NW 41 61 22 33 1013.4 1011.2 0.0
16/11:30am 19.6 10.4 3.7 35 8.0 NW 41 52 22 28 1013.8 1011.7 0.0
16/11:15am 19.6 10.7 2.9 33 8.3 NW 39 59 21 32 1014.0 1011.9 0.0
16/11:00am 19.8 11.8 3.9 35 8.0 NW 35 50 19 27 1014.1 1012.0 0.0
16/10:30am 18.5 10.4 3.2 36 7.5 NW 35 48 19 26 1014.6 1012.5 0.0
16/10:00am 17.6 10.5 3.5 39 7.0 NNW 30 41 16 22 1015.0 1012.9 0.0
16/09:30am 17.5 10.9 4.1 41 6.7 NNW 28 43 15 23 1015.4 1013.3 0.0
16/09:00am 15.6 8.4 5.8 52 5.0 NNW 33 41 18 22 1015.6 1013.5 0.2
16/08:30am 14.8 7.6 4.8 51 5.0 NNW 32 54 17 29 1015.6 1013.5 0.2
16/08:28am 14.9 8.3 4.3 49 5.2 NNW 28 50 15 27 1015.7 1013.6 0.2
16/08:00am 14.4 9.8 6.5 59 4.0 N 20 28 11 15 1015.6 1013.5 0.2
16/07:30am 12.0 6.6 6.3 68 2.9 N 24 35 13 19 1015.9 1013.9 0.2
16/07:00am 11.4 8.4 7.5 77 2.0 N 13 26 7 14 1016.3 1014.2 0.2
16/06:30am 7.7 5.6 6.5 92 0.6 N 7 9 4 5 1016.1 1014.1 0.2
16/06:00am 6.2 5.0 4.7 90 0.7 CALM 0 0 0 0 1015.9 1013.9 0.2
16/05:30am 6.5 4.3 6.1 97 0.2 SW 7 11 4 6 1015.8 1013.7 0.2
16/05:21am 6.1 3.1 5.8 98 0.1 SSW 11 13 6 7 1015.9 1013.9 0.2
16/05:00am 5.7 1.4 5.4 98 0.1 SW 17 20 9 11 1016.3 1014.2 0.2
16/04:30am 6.9 4.0 6.6 98 0.1 NE 11 13 6 7 1015.6 1013.5 0.2
16/04:00am 6.5 3.5 6.2 98 0.1 NE 11 11 6 6 1015.4 1013.3 0.2
16/03:30am 6.3 2.9 6.0 98 0.1 NE 13 15 7 8 1015.4 1013.3 0.2
16/03:00am 7.2 3.6 6.9 98 0.1 ENE 15 15 8 8 1015.5 1013.4 0.2
16/02:30am 7.0 3.4 6.7 98 0.1 NE 15 17 8 9 1015.6 1013.5 0.2
16/02:00am 7.1 3.1 6.8 98 0.1 ENE 17 17 9 9 1015.9 1013.9 0.2
16/01:30am 8.1 4.3 7.7 97 0.2 ENE 17 17 9 9 1016.4 1014.3 0.2
16/01:00am 8.4 5.1 8.1 98 0.2 ENE 15 17 8 9 1016.8 1014.8 0.2
16/12:30am 7.9 4.0 7.0 94 0.4 ENE 17 20 9 11 1016.9 1014.9 0.2
16/12:00am 7.6 3.5 6.4 92 0.6 ENE 17 20 9 11 1017.1 1015.1 0.2
 
Date/Time
EST
Temp
°C
App
Temp
°C
Dew
Point
Rel
Hum
%
Delta-T
°C
Wind Press
QNH
hPa
Press
MSL
hPa
Rain
since 9 am
mm
Dir
 
Spd
km/h
Gust
km/h
Spd
kts
Gust
kts
15/11:30pm 8.6 4.8 7.5 93 0.6 E 17 20 9 11 1017.3 1015.2 0.2
15/11:00pm 9.5 6.5 9.2 98 0.2 E 15 20 8 11 1017.5 1015.4 0.2
15/10:30pm 10.1 6.5 9.8 98 0.2 ESE 19 22 10 12 1017.6 1015.6 0.2
15/10:00pm 9.7 6.6 7.3 85 1.2 E 13 22 7 12 1017.7 1015.7 0.2
15/09:30pm 9.4 4.7 3.4 66 2.8 E 17 20 9 11 1017.8 1015.8 0.2
15/09:00pm 11.2 8.3 1.7 52 4.3 ENE 6 9 3 5 1018.0 1016.0 0.2
15/08:30pm 11.5 8.9 0.9 48 4.7 N 4 6 2 3 1017.9 1015.9 0.2
15/08:00pm 11.5 7.9 0.6 47 4.8 NW 9 11 5 6 1017.9 1015.9 0.2
15/07:30pm 12.8 9.6 0.9 44 5.4 NW 7 9 4 5 1017.7 1015.7 0.2
15/07:00pm 13.1 10.0 1.1 44 5.4 NW 7 9 4 5 1017.6 1015.6 0.2
15/06:30pm 13.0 9.9 1.4 45 5.3 NW 7 9 4 5 1017.3 1015.2 0.2
15/06:00pm 13.9 10.8 1.5 43 5.7 WNW 7 9 4 5 1017.0 1015.0 0.2
15/05:30pm 15.6 11.9 2.1 40 6.4 WNW 11 19 6 10 1016.8 1014.8 0.2
15/05:00pm 17.6 13.3 1.2 33 7.7 W 13 15 7 8 1016.6 1014.5 0.2
15/04:30pm 18.4 13.3 1.0 31 8.2 W 17 20 9 11 1016.6 1014.5 0.2
15/04:00pm 18.8 14.1 0.9 30 8.5 W 15 24 8 13 1016.5 1014.4 0.2
15/03:30pm 18.0 11.8 -0.3 29 8.4 W 22 32 12 17 1016.6 1014.5 0.2
15/03:00pm 19.0 13.2 0.1 28 8.8 WNW 20 28 11 15 1016.7 1014.7 0.2
15/02:30pm 19.0 13.3 2.8 34 8.0 WNW 22 35 12 19 1016.8 1014.8 0.2
15/02:00pm 18.3 11.3 2.2 34 7.8 W 28 35 15 19 1017.0 1015.0 0.2
15/01:30pm 18.8 12.6 2.2 33 8.0 WNW 24 35 13 19 1017.3 1015.2 0.2
15/01:19pm 18.8 11.7 1.3 31 8.3 W 28 46 15 25 1017.4 1015.3 0.2

Other Formats:

Comma delimited format used in spreadsheet applications
http://www.bom.gov.au/fwo/IDN60801/IDN60801.95773.axf

JavaScript Object Notation format (JSON) in row-major order
http://www.bom.gov.au/fwo/IDN60801/IDN60801.95773.json